createdAt,value
2022-10-21T00:00:21.267Z,13.30
2022-10-21T00:01:21.237Z,12.80
2022-10-21T00:02:21.234Z,12.70
2022-10-21T00:03:21.216Z,12.50
2022-10-21T00:04:21.222Z,13.70
2022-10-21T00:05:21.213Z,12.50
2022-10-21T00:06:21.189Z,12.80
2022-10-21T00:07:21.171Z,13.50
2022-10-21T00:08:21.165Z,12.70
2022-10-21T00:09:21.149Z,13.40
2022-10-21T00:10:21.155Z,13.10
2022-10-21T00:11:21.143Z,12.90
2022-10-21T00:12:21.125Z,13.90
2022-10-21T00:13:21.135Z,13.40
2022-10-21T00:14:21.103Z,13.20
2022-10-21T00:15:21.098Z,12.80
2022-10-21T00:16:21.081Z,13.40
2022-10-21T00:17:21.062Z,13.30
2022-10-21T00:18:21.062Z,14.40
2022-10-21T00:19:21.042Z,13.10
2022-10-21T00:20:21.051Z,13.20
2022-10-21T00:21:21.054Z,13.70
2022-10-21T00:22:21.011Z,13.80
2022-10-21T00:23:20.995Z,13.60
2022-10-21T00:24:21.002Z,13.50
2022-10-21T00:25:20.982Z,13.20
2022-10-21T00:26:20.989Z,14.00
2022-10-21T00:27:20.968Z,13.20
2022-10-21T00:28:20.957Z,13.10
2022-10-21T00:30:20.923Z,12.90
2022-10-21T00:31:20.919Z,13.00
2022-10-21T00:32:20.901Z,13.20
2022-10-21T00:33:20.887Z,13.40
2022-10-21T00:34:20.890Z,13.10
2022-10-21T00:35:20.880Z,13.90
2022-10-21T00:36:20.878Z,13.20
2022-10-21T00:37:20.878Z,14.00
2022-10-21T00:39:20.825Z,13.80
2022-10-21T00:40:20.817Z,14.00
2022-10-21T00:41:20.812Z,13.80
2022-10-21T00:42:20.806Z,13.70
2022-10-21T00:43:20.777Z,13.90
2022-10-21T00:44:20.778Z,14.00
2022-10-21T00:45:28.311Z,13.40
2022-10-21T00:46:20.764Z,13.70
2022-10-21T00:47:20.744Z,13.70
2022-10-21T00:48:20.727Z,14.20
2022-10-21T00:49:20.710Z,13.30
2022-10-21T00:50:20.706Z,14.30
2022-10-21T00:51:20.699Z,14.00
2022-10-21T00:52:20.696Z,14.20
2022-10-21T00:53:20.699Z,13.40
2022-10-21T00:54:21.558Z,14.10
2022-10-21T00:55:20.662Z,13.70
2022-10-21T00:56:20.684Z,13.40
2022-10-21T00:57:20.653Z,14.30
2022-10-21T00:58:20.617Z,13.30
2022-10-21T00:59:20.614Z,13.50
2022-10-21T01:00:20.606Z,13.60
2022-10-21T01:01:21.586Z,13.20
2022-10-21T01:02:20.579Z,13.40
2022-10-21T01:03:20.586Z,14.30
2022-10-21T01:04:20.552Z,12.80
2022-10-21T01:05:20.538Z,13.20
2022-10-21T01:06:20.541Z,13.80
2022-10-21T01:07:20.513Z,13.50
2022-10-21T01:08:20.518Z,13.40
2022-10-21T01:09:20.531Z,13.60
2022-10-21T01:10:20.491Z,13.10
2022-10-21T01:11:20.482Z,13.80
2022-10-21T01:12:20.463Z,13.60
2022-10-21T01:13:20.457Z,14.00
2022-10-21T01:14:20.493Z,13.60
2022-10-21T01:15:20.432Z,13.60
2022-10-21T01:16:20.466Z,13.40
2022-10-21T01:17:33.097Z,13.40
2022-10-21T01:18:21.430Z,14.10
2022-10-21T01:19:20.400Z,13.50
2022-10-21T01:20:20.393Z,13.80
2022-10-21T01:21:20.379Z,13.50
2022-10-21T01:22:20.386Z,14.10
2022-10-21T01:23:20.337Z,13.40
2022-10-21T01:24:20.368Z,13.30
2022-10-21T01:25:20.337Z,13.70
2022-10-21T01:26:20.311Z,13.40
2022-10-21T01:27:20.299Z,13.00
2022-10-21T01:28:20.294Z,13.30
2022-10-21T01:29:20.298Z,14.00
2022-10-21T01:30:20.268Z,14.30
2022-10-21T01:31:20.264Z,13.80
2022-10-21T01:32:20.267Z,13.30
2022-10-21T01:33:20.229Z,13.30
2022-10-21T01:34:20.229Z,13.10
2022-10-21T01:35:20.224Z,14.20
2022-10-21T01:36:20.201Z,13.90
2022-10-21T01:37:20.194Z,12.80
2022-10-21T01:38:20.191Z,13.20
2022-10-21T01:39:20.162Z,13.80
2022-10-21T01:40:20.158Z,13.40
2022-10-21T01:41:20.174Z,13.30
2022-10-21T01:42:20.145Z,13.10
2022-10-21T01:43:20.144Z,13.30
2022-10-21T01:44:20.119Z,13.40
2022-10-21T01:45:20.114Z,12.60
2022-10-21T01:46:20.111Z,12.60
2022-10-21T01:47:20.077Z,13.50
2022-10-21T01:48:20.083Z,12.50
2022-10-21T01:49:20.069Z,13.20
2022-10-21T01:50:20.063Z,12.30
2022-10-21T01:51:20.093Z,12.70
2022-10-21T01:52:20.060Z,12.60
2022-10-21T01:53:20.012Z,12.50
2022-10-21T01:54:20.034Z,12.70
2022-10-21T01:55:19.997Z,11.80
2022-10-21T01:56:19.985Z,11.50
2022-10-21T01:57:19.990Z,12.30
2022-10-21T01:58:19.963Z,12.20
2022-10-21T01:59:19.957Z,11.80
2022-10-21T02:00:20.053Z,12.80
2022-10-21T02:01:19.999Z,12.30
2022-10-21T02:02:19.921Z,12.80
2022-10-21T02:03:19.910Z,12.80
2022-10-21T02:04:19.932Z,12.10
2022-10-21T02:05:19.887Z,12.50
2022-10-21T02:06:19.886Z,11.70
2022-10-21T02:07:19.857Z,12.40
2022-10-21T02:08:19.854Z,11.90
2022-10-21T02:09:19.957Z,12.60
2022-10-21T02:10:19.832Z,12.80
2022-10-21T02:11:19.812Z,12.50
2022-10-21T02:12:19.809Z,13.10
2022-10-21T02:13:19.825Z,12.60
2022-10-21T02:14:19.807Z,13.10
2022-10-21T02:15:19.771Z,12.70
2022-10-21T02:16:19.794Z,13.40
2022-10-21T02:17:19.757Z,12.80
2022-10-21T02:18:19.754Z,13.20
2022-10-21T02:19:19.762Z,13.70
2022-10-21T02:20:19.732Z,13.20
2022-10-21T02:21:19.709Z,13.60
2022-10-21T02:22:19.718Z,13.10
2022-10-21T02:23:20.570Z,12.70
2022-10-21T02:24:19.681Z,12.90
2022-10-21T02:25:19.675Z,14.40
2022-10-21T02:26:19.656Z,13.50
2022-10-21T02:27:19.640Z,14.50
2022-10-21T02:28:19.644Z,13.50
2022-10-21T02:29:19.668Z,14.20
2022-10-21T02:30:19.606Z,13.20
2022-10-21T02:31:19.601Z,13.50
2022-10-21T02:32:19.605Z,13.80
2022-10-21T02:33:19.599Z,13.80
2022-10-21T02:34:19.567Z,15.20
2022-10-21T02:35:19.560Z,14.80
2022-10-21T02:36:19.558Z,13.90
2022-10-21T02:37:19.569Z,13.70
2022-10-21T02:38:19.530Z,15.20
2022-10-21T02:39:19.523Z,14.30
2022-10-21T02:40:19.539Z,14.20
2022-10-21T02:41:19.492Z,14.10
2022-10-21T02:42:19.487Z,14.30
2022-10-21T02:43:19.481Z,14.50
2022-10-21T02:44:19.458Z,14.40
2022-10-21T02:45:19.471Z,14.20
2022-10-21T02:47:59.815Z,13.60
2022-10-21T02:48:59.802Z,14.60
2022-10-21T02:49:59.803Z,14.80
2022-10-21T02:50:59.770Z,15.00
2022-10-21T02:51:59.787Z,15.10
2022-10-21T02:52:59.789Z,15.10
2022-10-21T02:53:59.738Z,15.10
2022-10-21T02:54:59.734Z,15.40
2022-10-21T02:55:59.711Z,15.00
2022-10-21T02:56:59.701Z,15.80
2022-10-21T02:57:59.693Z,15.90
2022-10-21T02:58:59.666Z,15.20
2022-10-21T02:59:59.681Z,15.00
2022-10-21T03:00:59.722Z,15.10
2022-10-21T03:01:59.658Z,15.30
2022-10-21T03:02:59.627Z,14.80
2022-10-21T03:03:59.616Z,14.80
2022-10-21T03:04:59.615Z,15.00
2022-10-21T03:05:59.595Z,16.00
2022-10-21T03:06:59.580Z,15.70
2022-10-21T03:07:59.578Z,16.00
2022-10-21T03:08:59.616Z,15.10
2022-10-21T03:09:59.575Z,15.80
2022-10-21T03:10:59.542Z,15.50
2022-10-21T03:11:59.535Z,16.20
2022-10-21T03:12:59.534Z,16.80
2022-10-21T03:13:59.509Z,16.80
2022-10-21T03:14:59.505Z,17.00
2022-10-21T03:15:59.500Z,17.30
2022-10-21T03:16:59.493Z,17.20
2022-10-21T03:17:59.470Z,16.30
2022-10-21T03:18:59.465Z,17.20
2022-10-21T03:19:59.445Z,17.70
2022-10-21T03:20:59.428Z,17.10
2022-10-21T03:21:59.423Z,17.30
2022-10-21T03:22:59.417Z,16.40
2022-10-21T03:23:59.399Z,17.40
2022-10-21T03:24:59.415Z,17.10
2022-10-21T03:25:59.382Z,16.50
2022-10-21T03:26:59.372Z,16.60
2022-10-21T03:27:59.368Z,17.20
2022-10-21T03:28:59.342Z,17.50
2022-10-21T03:29:59.349Z,17.40
2022-10-21T03:30:59.338Z,16.60
2022-10-21T03:31:59.314Z,17.70
2022-10-21T03:32:59.330Z,18.40
2022-10-21T03:33:59.299Z,17.50
2022-10-21T03:34:59.300Z,17.20
2022-10-21T03:35:59.880Z,17.90
2022-10-21T03:36:59.259Z,16.50
2022-10-21T03:37:59.272Z,16.90
2022-10-21T03:38:59.233Z,17.20
2022-10-21T03:39:59.255Z,18.40
2022-10-21T03:40:59.210Z,17.40
2022-10-21T03:41:59.222Z,18.00
2022-10-21T03:42:59.209Z,18.10
2022-10-21T03:43:59.183Z,17.50
2022-10-21T03:44:59.180Z,18.80
2022-10-21T03:45:59.186Z,18.30
2022-10-21T22:45:21.196Z,7.00
2022-10-21T22:46:33.451Z,8.10
2022-10-21T22:47:22.133Z,10.70
2022-10-21T22:48:21.124Z,10.90
2022-10-21T22:49:21.626Z,10.50
2022-10-21T22:50:21.089Z,12.00
2022-10-21T22:51:21.097Z,11.20
2022-10-21T22:52:21.071Z,11.30
2022-10-21T22:53:21.061Z,10.50
2022-10-21T22:54:46.714Z,10.70
2022-10-21T22:55:22.053Z,10.70
2022-10-21T22:56:21.024Z,9.90
2022-10-21T22:57:21.021Z,9.60
2022-10-21T22:58:21.002Z,10.10
2022-10-21T22:59:21.008Z,10.40
2022-10-21T23:00:21.008Z,9.50
2022-10-21T23:01:21.001Z,10.70
2022-10-21T23:02:20.962Z,10.50
2022-10-21T23:03:20.955Z,10.20
2022-10-21T23:04:20.951Z,9.00
2022-10-21T23:05:20.934Z,10.20
2022-10-21T23:06:20.939Z,9.80
2022-10-21T23:07:20.921Z,9.50
2022-10-21T23:08:20.892Z,9.10
2022-10-21T23:09:20.914Z,9.30
2022-10-21T23:10:20.873Z,9.30
2022-10-21T23:11:20.881Z,9.20
2022-10-21T23:12:20.850Z,9.60
2022-10-21T23:13:20.848Z,9.70
2022-10-21T23:14:20.874Z,9.00
2022-10-21T23:15:20.824Z,9.80
2022-10-21T23:16:20.819Z,9.20
2022-10-21T23:17:20.822Z,9.00
2022-10-21T23:18:20.799Z,9.30
2022-10-21T23:19:20.802Z,9.60
2022-10-21T23:20:20.766Z,9.10
2022-10-21T23:21:20.779Z,9.10
2022-10-21T23:22:20.753Z,10.00
2022-10-21T23:23:20.766Z,10.30
2022-10-21T23:24:20.767Z,10.10
2022-10-21T23:25:20.717Z,9.40
2022-10-21T23:26:20.698Z,9.80
2022-10-21T23:27:20.709Z,9.40
2022-10-21T23:28:20.693Z,10.40
2022-10-21T23:29:20.671Z,9.90
2022-10-21T23:30:20.675Z,10.40
2022-10-21T23:31:20.662Z,10.50
2022-10-21T23:32:20.634Z,9.60
2022-10-21T23:33:20.650Z,10.30
2022-10-21T23:34:20.610Z,9.90
2022-10-21T23:35:20.621Z,10.60
2022-10-21T23:36:20.590Z,9.80
2022-10-21T23:38:20.600Z,9.90
2022-10-21T23:39:20.576Z,9.80
2022-10-21T23:40:20.550Z,9.70
2022-10-21T23:41:20.544Z,9.20
2022-10-21T23:42:20.527Z,10.30
2022-10-21T23:43:20.519Z,10.00
2022-10-21T23:44:20.515Z,9.70
2022-10-21T23:45:20.518Z,9.40
2022-10-21T23:46:20.507Z,9.50
2022-10-21T23:47:20.475Z,9.70
2022-10-21T23:48:20.461Z,9.90
2022-10-21T23:49:20.490Z,10.00
2022-10-21T23:50:20.441Z,9.70
2022-10-21T23:51:20.452Z,9.60
2022-10-21T23:52:20.417Z,10.10
2022-10-21T23:53:20.410Z,9.10
2022-10-21T23:54:20.408Z,10.10
2022-10-21T23:55:20.450Z,9.10
2022-10-21T23:56:20.373Z,10.30
2022-10-21T23:57:20.369Z,9.20
2022-10-21T23:58:20.351Z,9.50
2022-10-21T23:59:20.359Z,9.60
